首页
METAR-TAF:

METAR-TAF

机场 :

加德滿都, 尼泊尔

特里布万国际机场

纬度: 27-42N, 经度: 085-22E, 海拔: 1337米

当前天气观测

该预报发布于21分钟前的23:50 UTC
静风
温度 9°C
湿度 100%
气压 1020 hPa
能見度: 2000
少量云层高于1500英尺
散云层高于3000英尺
轻雾

METAR: VNKT 242350Z 00000KT 2000 BR FEW015 SCT030 09/09 Q1020 NOSIG

时间: 05:56 (00:11 UTC)

预报

该预报发布于1小时和11分钟前的23:00 UTC
预报有效从25日的 00点(UTC)到 25日的 24点(UTC)
风速2节,风向多变
能見度: 2500
少量云层高于1000英尺
散云层高于3000英尺
多云层高于10000英尺
轻雾
几率 40%
从 25日的 01点(UTC)到 25日的 03点(UTC)
能見度: 1000
轻雾
成为
从 25日的 04点(UTC)到 25日的 05点(UTC)
风速3节,风向南转南东
能見度: 4000
少量云层高于1500英尺
散云层高于3000英尺
多云层高于10000英尺
成为
从 25日的 07点(UTC)到 25日的 09点(UTC)
风速8节,风向西
能見度: 6000
少量云层高于2000英尺
散云层高于3000英尺
多云层高于10000英尺
几率 40%
从 25日的 06点(UTC)到 25日的 12点(UTC)
风速10节,风向西转西南
能見度: 5000
少量云层高于2500英尺, 积雨云.
阴天层高于9000英尺
雷暴, 小雨
成为
从 25日的 14点(UTC)到 25日的 15点(UTC)
风速2节,风向多变
能見度: 4000
少量云层高于1500英尺
散云层高于3000英尺
多云层高于10000英尺
轻雾

TAF: VNKT 242300Z 2500/2524 VRB02KT 2500 BR FEW010 SCT030 BKN100 PROB40 2501/2503 1000 BR BECMG 2504/2505 16003KT 4000 BR/HZ FEW015 SCT030 BKN100 BECMG 2507/2509 26008KT 6000 FEW020 SCT030 BKN100 PROB40 2506/2512 24010KT 5000 -TSRA FEW025CB OVC090 BECMG 2514/2515 VRB02KT 4000 BR FEW015 SCT030 BKN100

超过4000个机场的气象观测和天气预报(METAR&TAF报告)。

可查询的气象台以黄色和红色小点在地图上表示。

将鼠标移到小点上方,可查看气象台名称。

然后点击查看天气观测和预报。

如需切换地图:点击带黑十字的绿色按钮放大地图;点击带横线的绿色按钮缩小地图;或者点击绿色箭头查看邻近地区的地图。


METAR-TAF: